sensor_id;sensor_type;location;lat;lon;timestamp;temperature;humidity
43772;HTU21D;59066;54.782;32.024;2023-02-23T00:02:06;-12.98;72.45
43772;HTU21D;59066;54.782;32.024;2023-02-23T00:04:34;-12.86;72.58
43772;HTU21D;59066;54.782;32.024;2023-02-23T00:07:02;-12.95;72.16
43772;HTU21D;59066;54.782;32.024;2023-02-23T00:09:29;-13.10;72.27
43772;HTU21D;59066;54.782;32.024;2023-02-23T00:12:04;-13.18;72.52
43772;HTU21D;59066;54.782;32.024;2023-02-23T00:14:37;-13.31;72.54
43772;HTU21D;59066;54.782;32.024;2023-02-23T00:17:05;-13.31;72.87
43772;HTU21D;59066;54.782;32.024;2023-02-23T00:19:41;-13.37;72.66
43772;HTU21D;59066;54.782;32.024;2023-02-23T00:22:10;-13.39;72.86
43772;HTU21D;59066;54.782;32.024;2023-02-23T00:24:38;-13.42;72.84
43772;HTU21D;59066;54.782;32.024;2023-02-23T00:27:09;-13.40;73.12
43772;HTU21D;59066;54.782;32.024;2023-02-23T00:29:36;-13.46;72.77
43772;HTU21D;59066;54.782;32.024;2023-02-23T00:32:06;-13.54;72.74
43772;HTU21D;59066;54.782;32.024;2023-02-23T00:34:34;-13.53;73.09
43772;HTU21D;59066;54.782;32.024;2023-02-23T00:37:03;-13.57;73.10
43772;HTU21D;59066;54.782;32.024;2023-02-23T00:39:30;-13.56;73.41
43772;HTU21D;59066;54.782;32.024;2023-02-23T00:41:58;-13.62;72.99
43772;HTU21D;59066;54.782;32.024;2023-02-23T00:44:30;-13.55;73.81
43772;HTU21D;59066;54.782;32.024;2023-02-23T00:47:00;-13.36;73.63
43772;HTU21D;59066;54.782;32.024;2023-02-23T00:49:28;-13.24;73.42
43772;HTU21D;59066;54.782;32.024;2023-02-23T00:51:55;-13.18;73.03
43772;HTU21D;59066;54.782;32.024;2023-02-23T00:54:22;-13.11;72.95
43772;HTU21D;59066;54.782;32.024;2023-02-23T00:56:50;-13.10;72.65
43772;HTU21D;59066;54.782;32.024;2023-02-23T00:59:18;-13.12;72.42
43772;HTU21D;59066;54.782;32.024;2023-02-23T01:01:45;-13.32;71.96
43772;HTU21D;59066;54.782;32.024;2023-02-23T01:04:13;-13.54;72.32
43772;HTU21D;59066;54.782;32.024;2023-02-23T01:06:41;-13.61;72.85
43772;HTU21D;59066;54.782;32.024;2023-02-23T01:09:14;-13.62;73.06
43772;HTU21D;59066;54.782;32.024;2023-02-23T01:11:48;-13.62;73.24
43772;HTU21D;59066;54.782;32.024;2023-02-23T01:14:15;-13.68;73.10
43772;HTU21D;59066;54.782;32.024;2023-02-23T01:16:43;-13.69;73.36
43772;HTU21D;59066;54.782;32.024;2023-02-23T01:19:10;-13.71;73.20
43772;HTU21D;59066;54.782;32.024;2023-02-23T01:21:40;-13.75;73.28
43772;HTU21D;59066;54.782;32.024;2023-02-23T01:24:08;-13.76;73.48
43772;HTU21D;59066;54.782;32.024;2023-02-23T01:26:39;-13.72;74.03
43772;HTU21D;59066;54.782;32.024;2023-02-23T01:29:13;-13.59;74.06
43772;HTU21D;59066;54.782;32.024;2023-02-23T01:31:46;-13.54;73.41
43772;HTU21D;59066;54.782;32.024;2023-02-23T01:34:18;-13.49;73.49
43772;HTU21D;59066;54.782;32.024;2023-02-23T01:36:47;-13.48;73.35
43772;HTU21D;59066;54.782;32.024;2023-02-23T01:39:18;-13.46;73.03
43772;HTU21D;59066;54.782;32.024;2023-02-23T01:41:47;-13.62;72.77
43772;HTU21D;59066;54.782;32.024;2023-02-23T01:46:44;-13.77;73.20
43772;HTU21D;59066;54.782;32.024;2023-02-23T01:49:23;-13.81;73.35
43772;HTU21D;59066;54.782;32.024;2023-02-23T01:52:00;-13.86;73.42
43772;HTU21D;59066;54.782;32.024;2023-02-23T01:54:38;-13.85;73.64
43772;HTU21D;59066;54.782;32.024;2023-02-23T01:57:10;-13.75;73.86
43772;HTU21D;59066;54.782;32.024;2023-02-23T01:59:41;-13.77;73.25
43772;HTU21D;59066;54.782;32.024;2023-02-23T02:02:09;-13.87;73.16
43772;HTU21D;59066;54.782;32.024;2023-02-23T02:04:41;-13.90;73.35
43772;HTU21D;59066;54.782;32.024;2023-02-23T02:07:15;-13.93;73.33
43772;HTU21D;59066;54.782;32.024;2023-02-23T02:09:48;-13.91;73.16
43772;HTU21D;59066;54.782;32.024;2023-02-23T02:12:33;-13.97;73.41
43772;HTU21D;59066;54.782;32.024;2023-02-23T02:15:03;-14.04;73.08
43772;HTU21D;59066;54.782;32.024;2023-02-23T02:21:12;-13.87;73.38
43772;HTU21D;59066;54.782;32.024;2023-02-23T02:26:54;-14.04;72.95
43772;HTU21D;59066;54.782;32.024;2023-02-23T02:41:27;-14.22;73.41
43772;HTU21D;59066;54.782;32.024;2023-02-23T02:44:14;-14.26;73.49
43772;HTU21D;59066;54.782;32.024;2023-02-23T02:46:48;-14.14;73.56
43772;HTU21D;59066;54.782;32.024;2023-02-23T02:49:41;-14.18;72.90
43772;HTU21D;59066;54.782;32.024;2023-02-23T02:52:34;-14.27;72.77
43772;HTU21D;59066;54.782;32.024;2023-02-23T02:55:18;-14.30;72.80
43772;HTU21D;59066;54.782;32.024;2023-02-23T02:57:50;-14.33;72.99
43772;HTU21D;59066;54.782;32.024;2023-02-23T03:00:31;-14.37;73.08
43772;HTU21D;59066;54.782;32.024;2023-02-23T03:03:39;-14.49;72.90
43772;HTU21D;59066;54.782;32.024;2023-02-23T03:06:46;-14.54;72.91
43772;HTU21D;59066;54.782;32.024;2023-02-23T03:09:54;-14.55;73.09
43772;HTU21D;59066;54.782;32.024;2023-02-23T03:16:01;-14.64;72.75
43772;HTU21D;59066;54.782;32.024;2023-02-23T03:21:48;-14.62;73.04
43772;HTU21D;59066;54.782;32.024;2023-02-23T03:24:43;-14.63;72.97
43772;HTU21D;59066;54.782;32.024;2023-02-23T03:27:53;-14.62;72.94
43772;HTU21D;59066;54.782;32.024;2023-02-23T03:31:07;-14.67;72.54
43772;HTU21D;59066;54.782;32.024;2023-02-23T03:36:49;-14.75;72.56
43772;HTU21D;59066;54.782;32.024;2023-02-23T03:39:44;-14.82;72.86
43772;HTU21D;59066;54.782;32.024;2023-02-23T03:42:34;-14.85;72.93
43772;HTU21D;59066;54.782;32.024;2023-02-23T03:45:23;-14.89;72.85
43772;HTU21D;59066;54.782;32.024;2023-02-23T03:48:11;-14.88;73.04
43772;HTU21D;59066;54.782;32.024;2023-02-23T03:51:01;-14.90;72.97
43772;HTU21D;59066;54.782;32.024;2023-02-23T03:54:06;-14.87;73.11
43772;HTU21D;59066;54.782;32.024;2023-02-23T03:56:57;-14.89;72.90
43772;HTU21D;59066;54.782;32.024;2023-02-23T03:59:48;-14.89;72.95
43772;HTU21D;59066;54.782;32.024;2023-02-23T04:02:40;-14.96;72.96
43772;HTU21D;59066;54.782;32.024;2023-02-23T04:05:28;-14.99;72.87
43772;HTU21D;59066;54.782;32.024;2023-02-23T04:08:17;-14.94;72.84
43772;HTU21D;59066;54.782;32.024;2023-02-23T04:14:25;-14.96;72.90
43772;HTU21D;59066;54.782;32.024;2023-02-23T04:16:54;-15.02;72.87
43772;HTU21D;59066;54.782;32.024;2023-02-23T04:19:26;-15.09;72.54
43772;HTU21D;59066;54.782;32.024;2023-02-23T04:21:54;-15.05;73.19
43772;HTU21D;59066;54.782;32.024;2023-02-23T04:24:22;-15.01;73.22
43772;HTU21D;59066;54.782;32.024;2023-02-23T04:26:49;-14.99;72.85
43772;HTU21D;59066;54.782;32.024;2023-02-23T04:29:17;-15.05;72.48
43772;HTU21D;59066;54.782;32.024;2023-02-23T04:31:44;-15.14;72.75
43772;HTU21D;59066;54.782;32.024;2023-02-23T04:34:12;-15.16;72.72
43772;HTU21D;59066;54.782;32.024;2023-02-23T04:36:40;-15.18;73.10
43772;HTU21D;59066;54.782;32.024;2023-02-23T04:39:08;-15.19;72.70
43772;HTU21D;59066;54.782;32.024;2023-02-23T04:41:36;-15.18;73.14
43772;HTU21D;59066;54.782;32.024;2023-02-23T04:44:03;-15.19;72.61
43772;HTU21D;59066;54.782;32.024;2023-02-23T04:46:31;-15.16;73.14
43772;HTU21D;59066;54.782;32.024;2023-02-23T04:48:58;-15.08;73.24
43772;HTU21D;59066;54.782;32.024;2023-02-23T04:51:26;-15.07;73.03
43772;HTU21D;59066;54.782;32.024;2023-02-23T04:53:58;-15.06;72.95
43772;HTU21D;59066;54.782;32.024;2023-02-23T04:56:26;-15.04;72.96
43772;HTU21D;59066;54.782;32.024;2023-02-23T04:58:53;-15.02;73.22
43772;HTU21D;59066;54.782;32.024;2023-02-23T05:01:21;-15.00;73.02
43772;HTU21D;59066;54.782;32.024;2023-02-23T05:03:49;-14.98;73.19
43772;HTU21D;59066;54.782;32.024;2023-02-23T05:06:17;-14.96;73.04
43772;HTU21D;59066;54.782;32.024;2023-02-23T05:08:44;-14.96;73.14
43772;HTU21D;59066;54.782;32.024;2023-02-23T05:11:12;-14.88;73.64
43772;HTU21D;59066;54.782;32.024;2023-02-23T05:13:39;-14.84;73.35
43772;HTU21D;59066;54.782;32.024;2023-02-23T05:16:07;-14.78;73.38
43772;HTU21D;59066;54.782;32.024;2023-02-23T05:18:34;-14.75;73.39
43772;HTU21D;59066;54.782;32.024;2023-02-23T05:21:04;-14.70;73.11
43772;HTU21D;59066;54.782;32.024;2023-02-23T05:23:34;-14.65;73.43
43772;HTU21D;59066;54.782;32.024;2023-02-23T05:26:04;-14.58;73.35
43772;HTU21D;59066;54.782;32.024;2023-02-23T05:28:34;-14.58;72.99
43772;HTU21D;59066;54.782;32.024;2023-02-23T05:31:02;-14.67;72.48
43772;HTU21D;59066;54.782;32.024;2023-02-23T05:33:30;-14.72;73.19
43772;HTU21D;59066;54.782;32.024;2023-02-23T05:35:58;-14.76;72.69
43772;HTU21D;59066;54.782;32.024;2023-02-23T05:38:26;-14.80;72.82
43772;HTU21D;59066;54.782;32.024;2023-02-23T05:40:53;-14.81;72.94
43772;HTU21D;59066;54.782;32.024;2023-02-23T05:43:21;-14.79;72.89
43772;HTU21D;59066;54.782;32.024;2023-02-23T05:45:48;-14.77;73.06
43772;HTU21D;59066;54.782;32.024;2023-02-23T05:48:16;-14.70;73.08
43772;HTU21D;59066;54.782;32.024;2023-02-23T05:50:43;-14.75;72.96
43772;HTU21D;59066;54.782;32.024;2023-02-23T05:53:11;-14.71;73.26
43772;HTU21D;59066;54.782;32.024;2023-02-23T05:55:38;-14.64;72.78
43772;HTU21D;59066;54.782;32.024;2023-02-23T05:58:06;-14.58;73.35
43772;HTU21D;59066;54.782;32.024;2023-02-23T06:00:33;-14.47;73.13
43772;HTU21D;59066;54.782;32.024;2023-02-23T06:03:00;-14.49;73.19
43772;HTU21D;59066;54.782;32.024;2023-02-23T06:05:28;-14.43;73.06
43772;HTU21D;59066;54.782;32.024;2023-02-23T06:07:56;-14.42;72.85
43772;HTU21D;59066;54.782;32.024;2023-02-23T06:10:23;-14.34;72.98
43772;HTU21D;59066;54.782;32.024;2023-02-23T06:12:51;-14.33;72.33
43772;HTU21D;59066;54.782;32.024;2023-02-23T06:15:19;-14.42;72.59
43772;HTU21D;59066;54.782;32.024;2023-02-23T06:17:46;-14.40;72.51
43772;HTU21D;59066;54.782;32.024;2023-02-23T06:20:14;-14.34;73.01
43772;HTU21D;59066;54.782;32.024;2023-02-23T06:22:42;-14.23;73.15
43772;HTU21D;59066;54.782;32.024;2023-02-23T06:25:09;-14.25;72.54
43772;HTU21D;59066;54.782;32.024;2023-02-23T06:27:39;-14.27;72.36
43772;HTU21D;59066;54.782;32.024;2023-02-23T06:30:07;-14.18;73.08
43772;HTU21D;59066;54.782;32.024;2023-02-23T06:32:35;-14.29;72.22
43772;HTU21D;59066;54.782;32.024;2023-02-23T06:35:04;-14.31;72.88
43772;HTU21D;59066;54.782;32.024;2023-02-23T06:37:32;-14.23;72.64
43772;HTU21D;59066;54.782;32.024;2023-02-23T06:40:00;-14.31;72.61
43772;HTU21D;59066;54.782;32.024;2023-02-23T06:42:28;-14.25;73.22
43772;HTU21D;59066;54.782;32.024;2023-02-23T06:44:56;-14.15;73.09
43772;HTU21D;59066;54.782;32.024;2023-02-23T06:47:23;-14.14;73.10
43772;HTU21D;59066;54.782;32.024;2023-02-23T06:49:50;-14.03;73.35
43772;HTU21D;59066;54.782;32.024;2023-02-23T06:52:18;-13.84;73.65
43772;HTU21D;59066;54.782;32.024;2023-02-23T06:54:45;-13.65;73.52
43772;HTU21D;59066;54.782;32.024;2023-02-23T06:57:14;-13.56;72.78
43772;HTU21D;59066;54.782;32.024;2023-02-23T06:59:42;-13.74;72.41
43772;HTU21D;59066;54.782;32.024;2023-02-23T07:02:12;-13.73;72.81
43772;HTU21D;59066;54.782;32.024;2023-02-23T07:04:40;-13.67;72.83
43772;HTU21D;59066;54.782;32.024;2023-02-23T07:07:07;-13.68;72.51
43772;HTU21D;59066;54.782;32.024;2023-02-23T07:09:35;-13.70;72.82
43772;HTU21D;59066;54.782;32.024;2023-02-23T07:12:03;-13.61;73.05
43772;HTU21D;59066;54.782;32.024;2023-02-23T07:14:31;-13.56;73.26
43772;HTU21D;59066;54.782;32.024;2023-02-23T07:16:59;-13.44;72.68
43772;HTU21D;59066;54.782;32.024;2023-02-23T07:19:27;-13.37;73.34
43772;HTU21D;59066;54.782;32.024;2023-02-23T07:21:54;-13.32;72.82
43772;HTU21D;59066;54.782;32.024;2023-02-23T07:24:22;-13.31;73.09
43772;HTU21D;59066;54.782;32.024;2023-02-23T07:26:50;-13.28;73.18
43772;HTU21D;59066;54.782;32.024;2023-02-23T07:29:18;-13.24;73.16
43772;HTU21D;59066;54.782;32.024;2023-02-23T07:31:46;-13.18;73.37
43772;HTU21D;59066;54.782;32.024;2023-02-23T07:34:17;-13.10;73.14
43772;HTU21D;59066;54.782;32.024;2023-02-23T07:36:44;-13.09;72.79
43772;HTU21D;59066;54.782;32.024;2023-02-23T07:39:12;-13.00;73.43
43772;HTU21D;59066;54.782;32.024;2023-02-23T07:41:39;-12.98;72.89
43772;HTU21D;59066;54.782;32.024;2023-02-23T07:44:16;-12.99;72.73
43772;HTU21D;59066;54.782;32.024;2023-02-23T07:46:43;-12.89;73.38
43772;HTU21D;59066;54.782;32.024;2023-02-23T07:49:12;-12.86;72.58
43772;HTU21D;59066;54.782;32.024;2023-02-23T07:51:40;-12.80;73.03
43772;HTU21D;59066;54.782;32.024;2023-02-23T07:54:07;-12.79;72.64
43772;HTU21D;59066;54.782;32.024;2023-02-23T07:56:35;-12.69;73.06
43772;HTU21D;59066;54.782;32.024;2023-02-23T07:59:02;-12.64;72.87
43772;HTU21D;59066;54.782;32.024;2023-02-23T08:01:29;-12.55;73.23
43772;HTU21D;59066;54.782;32.024;2023-02-23T08:03:57;-12.43;73.18
43772;HTU21D;59066;54.782;32.024;2023-02-23T08:06:24;-12.26;73.76
43772;HTU21D;59066;54.782;32.024;2023-02-23T08:08:52;-12.19;73.16
43772;HTU21D;59066;54.782;32.024;2023-02-23T08:11:20;-12.07;73.20
43772;HTU21D;59066;54.782;32.024;2023-02-23T08:13:47;-12.04;72.81
43772;HTU21D;59066;54.782;32.024;2023-02-23T08:16:14;-12.01;72.87
43772;HTU21D;59066;54.782;32.024;2023-02-23T08:18:42;-11.96;72.90
43772;HTU21D;59066;54.782;32.024;2023-02-23T08:21:09;-11.95;72.86
43772;HTU21D;59066;54.782;32.024;2023-02-23T08:23:38;-11.77;73.57
43772;HTU21D;59066;54.782;32.024;2023-02-23T08:26:05;-11.64;73.48
43772;HTU21D;59066;54.782;32.024;2023-02-23T08:28:32;-11.61;72.99
43772;HTU21D;59066;54.782;32.024;2023-02-23T08:31:00;-11.46;73.26
43772;HTU21D;59066;54.782;32.024;2023-02-23T08:33:28;-11.24;73.35
43772;HTU21D;59066;54.782;32.024;2023-02-23T08:35:58;-11.03;73.75
43772;HTU21D;59066;54.782;32.024;2023-02-23T08:38:25;-10.82;73.16
43772;HTU21D;59066;54.782;32.024;2023-02-23T08:40:53;-10.71;73.36
43772;HTU21D;59066;54.782;32.024;2023-02-23T08:43:21;-10.53;73.25
43772;HTU21D;59066;54.782;32.024;2023-02-23T08:45:48;-10.37;73.14
43772;HTU21D;59066;54.782;32.024;2023-02-23T08:48:16;-10.31;72.64
43772;HTU21D;59066;54.782;32.024;2023-02-23T08:50:43;-10.22;72.88
43772;HTU21D;59066;54.782;32.024;2023-02-23T08:53:10;-10.07;73.41
43772;HTU21D;59066;54.782;32.024;2023-02-23T08:55:38;-9.79;73.57
43772;HTU21D;59066;54.782;32.024;2023-02-23T08:58:07;-9.66;73.38
43772;HTU21D;59066;54.782;32.024;2023-02-23T09:00:37;-9.49;73.28
43772;HTU21D;59066;54.782;32.024;2023-02-23T09:03:05;-9.41;73.41
43772;HTU21D;59066;54.782;32.024;2023-02-23T09:05:35;-9.25;73.73
43772;HTU21D;59066;54.782;32.024;2023-02-23T09:08:03;-9.20;73.09
43772;HTU21D;59066;54.782;32.024;2023-02-23T09:10:31;-9.17;73.20
43772;HTU21D;59066;54.782;32.024;2023-02-23T09:12:59;-9.17;72.83
43772;HTU21D;59066;54.782;32.024;2023-02-23T09:15:27;-9.10;72.86
43772;HTU21D;59066;54.782;32.024;2023-02-23T09:17:59;-8.99;73.05
43772;HTU21D;59066;54.782;32.024;2023-02-23T09:20:26;-8.90;72.78
43772;HTU21D;59066;54.782;32.024;2023-02-23T09:22:54;-8.92;72.65
43772;HTU21D;59066;54.782;32.024;2023-02-23T09:25:22;-8.79;73.03
43772;HTU21D;59066;54.782;32.024;2023-02-23T09:27:51;-8.68;73.24
43772;HTU21D;59066;54.782;32.024;2023-02-23T09:30:20;-8.56;73.57
43772;HTU21D;59066;54.782;32.024;2023-02-23T09:32:52;-8.49;73.09
43772;HTU21D;59066;54.782;32.024;2023-02-23T09:35:22;-8.23;73.35
43772;HTU21D;59066;54.782;32.024;2023-02-23T09:37:53;-8.07;73.06
43772;HTU21D;59066;54.782;32.024;2023-02-23T09:40:26;-7.96;72.63
43772;HTU21D;59066;54.782;32.024;2023-02-23T09:46:30;-7.61;72.71
43772;HTU21D;59066;54.782;32.024;2023-02-23T09:49:02;-7.52;72.19
43772;HTU21D;59066;54.782;32.024;2023-02-23T09:51:37;-7.32;72.96
43772;HTU21D;59066;54.782;32.024;2023-02-23T09:54:07;-7.18;72.22
43772;HTU21D;59066;54.782;32.024;2023-02-23T09:56:40;-7.13;71.94
43772;HTU21D;59066;54.782;32.024;2023-02-23T09:59:16;-6.98;72.25
43772;HTU21D;59066;54.782;32.024;2023-02-23T10:04:31;-6.74;71.99
43772;HTU21D;59066;54.782;32.024;2023-02-23T10:07:19;-6.58;71.93
43772;HTU21D;59066;54.782;32.024;2023-02-23T10:10:02;-6.49;71.50
43772;HTU21D;59066;54.782;32.024;2023-02-23T10:12:45;-6.39;72.02
43772;HTU21D;59066;54.782;32.024;2023-02-23T10:15:36;-6.13;72.29
43772;HTU21D;59066;54.782;32.024;2023-02-23T10:24:32;-4.42;75.34
43772;HTU21D;59066;54.782;32.024;2023-02-23T10:27:23;-3.43;75.67
43772;HTU21D;59066;54.782;32.024;2023-02-23T10:29:54;-2.36;76.03
43772;HTU21D;59066;54.782;32.024;2023-02-23T10:35:17;-0.94;73.11
43772;HTU21D;59066;54.782;32.024;2023-02-23T10:37:47;-0.55;68.35
43772;HTU21D;59066;54.782;32.024;2023-02-23T10:40:26;0.20;72.29
43772;HTU21D;59066;54.782;32.024;2023-02-23T10:42:55;0.90;72.88
43772;HTU21D;59066;54.782;32.024;2023-02-23T10:45:26;1.54;71.72
43772;HTU21D;59066;54.782;32.024;2023-02-23T10:47:57;1.82;70.86
43772;HTU21D;59066;54.782;32.024;2023-02-23T10:50:26;2.35;70.45
43772;HTU21D;59066;54.782;32.024;2023-02-23T10:53:24;2.29;68.68
43772;HTU21D;59066;54.782;32.024;2023-02-23T10:56:09;1.79;67.96
43772;HTU21D;59066;54.782;32.024;2023-02-23T10:58:49;1.65;67.14
43772;HTU21D;59066;54.782;32.024;2023-02-23T11:04:22;2.15;66.68
43772;HTU21D;59066;54.782;32.024;2023-02-23T11:07:08;2.25;64.88
43772;HTU21D;59066;54.782;32.024;2023-02-23T11:09:35;2.10;64.30
43772;HTU21D;59066;54.782;32.024;2023-02-23T11:12:24;1.99;63.66
43772;HTU21D;59066;54.782;32.024;2023-02-23T11:14:54;2.15;64.76
43772;HTU21D;59066;54.782;32.024;2023-02-23T11:17:33;2.74;64.23
43772;HTU21D;59066;54.782;32.024;2023-02-23T11:20:17;2.67;61.72
43772;HTU21D;59066;54.782;32.024;2023-02-23T11:22:47;3.08;66.01
43772;HTU21D;59066;54.782;32.024;2023-02-23T11:25:19;3.72;64.50
43772;HTU21D;59066;54.782;32.024;2023-02-23T11:27:50;3.73;58.67
43772;HTU21D;59066;54.782;32.024;2023-02-23T11:30:22;3.45;53.93
43772;HTU21D;59066;54.782;32.024;2023-02-23T11:32:54;3.00;57.18
43772;HTU21D;59066;54.782;32.024;2023-02-23T11:37:49;3.15;60.06
43772;HTU21D;59066;54.782;32.024;2023-02-23T11:40:32;3.42;58.68
43772;HTU21D;59066;54.782;32.024;2023-02-23T11:45:46;3.44;58.39
43772;HTU21D;59066;54.782;32.024;2023-02-23T11:50:52;3.09;56.85
43772;HTU21D;59066;54.782;32.024;2023-02-23T11:53:35;3.24;55.40
43772;HTU21D;59066;54.782;32.024;2023-02-23T11:56:04;3.24;57.16
43772;HTU21D;59066;54.782;32.024;2023-02-23T11:58:48;3.48;56.79
43772;HTU21D;59066;54.782;32.024;2023-02-23T12:01:46;3.63;54.19
43772;HTU21D;59066;54.782;32.024;2023-02-23T12:04:35;3.63;56.35
43772;HTU21D;59066;54.782;32.024;2023-02-23T12:10:01;3.11;56.15
43772;HTU21D;59066;54.782;32.024;2023-02-23T12:12:43;3.42;56.96
43772;HTU21D;59066;54.782;32.024;2023-02-23T12:15:21;3.25;56.54
43772;HTU21D;59066;54.782;32.024;2023-02-23T12:17:55;2.90;53.46
43772;HTU21D;59066;54.782;32.024;2023-02-23T12:20:28;3.42;56.91
43772;HTU21D;59066;54.782;32.024;2023-02-23T12:23:06;3.93;56.48
43772;HTU21D;59066;54.782;32.024;2023-02-23T12:31:16;4.67;58.18
43772;HTU21D;59066;54.782;32.024;2023-02-23T12:33:49;4.42;56.16
43772;HTU21D;59066;54.782;32.024;2023-02-23T12:36:39;3.77;53.36
43772;HTU21D;59066;54.782;32.024;2023-02-23T12:39:28;3.20;51.49
43772;HTU21D;59066;54.782;32.024;2023-02-23T12:42:10;2.95;52.65
43772;HTU21D;59066;54.782;32.024;2023-02-23T12:44:45;2.36;47.97
43772;HTU21D;59066;54.782;32.024;2023-02-23T12:49:57;1.87;52.85
43772;HTU21D;59066;54.782;32.024;2023-02-23T12:52:33;1.91;51.07
43772;HTU21D;59066;54.782;32.024;2023-02-23T12:55:05;1.62;51.28
43772;HTU21D;59066;54.782;32.024;2023-02-23T12:58:07;0.93;47.59
43772;HTU21D;59066;54.782;32.024;2023-02-23T13:01:03;0.25;48.06
43772;HTU21D;59066;54.782;32.024;2023-02-23T13:06:19;0.04;53.77
43772;HTU21D;59066;54.782;32.024;2023-02-23T13:17:39;-1.52;53.67
43772;HTU21D;59066;54.782;32.024;2023-02-23T13:20:31;-1.64;54.66
43772;HTU21D;59066;54.782;32.024;2023-02-23T13:25:57;-2.35;52.97
43772;HTU21D;59066;54.782;32.024;2023-02-23T13:28:39;-2.46;55.13
43772;HTU21D;59066;54.782;32.024;2023-02-23T13:31:19;-2.62;54.81
43772;HTU21D;59066;54.782;32.024;2023-02-23T13:33:48;-2.67;56.10
43772;HTU21D;59066;54.782;32.024;2023-02-23T13:36:18;-2.74;56.13
43772;HTU21D;59066;54.782;32.024;2023-02-23T13:44:30;-2.90;57.48
43772;HTU21D;59066;54.782;32.024;2023-02-23T13:50:16;-3.17;58.71
43772;HTU21D;59066;54.782;32.024;2023-02-23T13:52:45;-3.21;57.92
43772;HTU21D;59066;54.782;32.024;2023-02-23T13:58:12;-3.55;58.83
43772;HTU21D;59066;54.782;32.024;2023-02-23T14:00:43;-3.66;57.58
43772;HTU21D;59066;54.782;32.024;2023-02-23T14:03:22;-3.92;58.09
43772;HTU21D;59066;54.782;32.024;2023-02-23T14:05:55;-4.09;58.98
43772;HTU21D;59066;54.782;32.024;2023-02-23T14:08:31;-4.21;59.10
43772;HTU21D;59066;54.782;32.024;2023-02-23T14:11:01;-4.26;59.34
43772;HTU21D;59066;54.782;32.024;2023-02-23T14:13:33;-4.30;59.48
43772;HTU21D;59066;54.782;32.024;2023-02-23T14:21:49;-4.34;59.38
43772;HTU21D;59066;54.782;32.024;2023-02-23T14:24:24;-4.39;59.91
43772;HTU21D;59066;54.782;32.024;2023-02-23T14:27:18;-4.31;61.00
43772;HTU21D;59066;54.782;32.024;2023-02-23T14:32:43;-4.55;60.73
43772;HTU21D;59066;54.782;32.024;2023-02-23T14:41:08;-4.81;61.17
43772;HTU21D;59066;54.782;32.024;2023-02-23T14:43:40;-4.94;61.31
43772;HTU21D;59066;54.782;32.024;2023-02-23T14:46:23;-5.03;61.41
43772;HTU21D;59066;54.782;32.024;2023-02-23T14:49:09;-5.07;61.76
43772;HTU21D;59066;54.782;32.024;2023-02-23T14:51:46;-5.03;61.65
43772;HTU21D;59066;54.782;32.024;2023-02-23T14:54:26;-5.08;61.41
43772;HTU21D;59066;54.782;32.024;2023-02-23T14:56:58;-5.15;61.43
43772;HTU21D;59066;54.782;32.024;2023-02-23T14:59:37;-5.15;62.07
43772;HTU21D;59066;54.782;32.024;2023-02-23T15:02:16;-5.27;61.55
43772;HTU21D;59066;54.782;32.024;2023-02-23T15:04:44;-5.39;60.67
43772;HTU21D;59066;54.782;32.024;2023-02-23T15:07:17;-5.48;61.09
43772;HTU21D;59066;54.782;32.024;2023-02-23T15:09:52;-5.60;60.83
43772;HTU21D;59066;54.782;32.024;2023-02-23T15:12:29;-5.59;60.51
43772;HTU21D;59066;54.782;32.024;2023-02-23T15:15:04;-5.56;60.63
43772;HTU21D;59066;54.782;32.024;2023-02-23T15:17:33;-5.56;60.80
43772;HTU21D;59066;54.782;32.024;2023-02-23T15:20:06;-5.57;60.52
43772;HTU21D;59066;54.782;32.024;2023-02-23T15:22:45;-5.64;59.87
43772;HTU21D;59066;54.782;32.024;2023-02-23T15:25:21;-5.64;60.72
43772;HTU21D;59066;54.782;32.024;2023-02-23T15:27:51;-5.61;61.10
43772;HTU21D;59066;54.782;32.024;2023-02-23T15:30:29;-5.67;60.13
43772;HTU21D;59066;54.782;32.024;2023-02-23T15:33:04;-5.65;60.43
43772;HTU21D;59066;54.782;32.024;2023-02-23T15:35:35;-5.69;60.63
43772;HTU21D;59066;54.782;32.024;2023-02-23T15:38:16;-5.68;60.72
43772;HTU21D;59066;54.782;32.024;2023-02-23T15:41:10;-5.76;61.02
43772;HTU21D;59066;54.782;32.024;2023-02-23T15:43:42;-5.79;61.85
43772;HTU21D;59066;54.782;32.024;2023-02-23T15:46:22;-5.77;61.73
43772;HTU21D;59066;54.782;32.024;2023-02-23T15:48:52;-5.78;61.02
43772;HTU21D;59066;54.782;32.024;2023-02-23T15:53:49;-5.84;61.28
43772;HTU21D;59066;54.782;32.024;2023-02-23T15:56:27;-5.87;61.13
43772;HTU21D;59066;54.782;32.024;2023-02-23T15:59:00;-5.92;61.43
43772;HTU21D;59066;54.782;32.024;2023-02-23T16:01:30;-5.96;61.33
43772;HTU21D;59066;54.782;32.024;2023-02-23T16:04:05;-5.88;61.13
43772;HTU21D;59066;54.782;32.024;2023-02-23T16:06:55;-6.04;61.02
43772;HTU21D;59066;54.782;32.024;2023-02-23T16:09:32;-6.05;61.45
43772;HTU21D;59066;54.782;32.024;2023-02-23T16:14:55;-6.16;61.28
43772;HTU21D;59066;54.782;32.024;2023-02-23T16:20:18;-6.24;61.66
43772;HTU21D;59066;54.782;32.024;2023-02-23T16:22:49;-6.29;61.31
43772;HTU21D;59066;54.782;32.024;2023-02-23T16:25:24;-6.29;61.70
43772;HTU21D;59066;54.782;32.024;2023-02-23T16:28:03;-6.27;62.17
43772;HTU21D;59066;54.782;32.024;2023-02-23T16:33:19;-6.23;62.08
43772;HTU21D;59066;54.782;32.024;2023-02-23T16:36:03;-6.23;62.24
43772;HTU21D;59066;54.782;32.024;2023-02-23T16:38:38;-6.21;61.95
43772;HTU21D;59066;54.782;32.024;2023-02-23T16:41:16;-6.42;61.71
43772;HTU21D;59066;54.782;32.024;2023-02-23T16:43:47;-6.47;61.78
43772;HTU21D;59066;54.782;32.024;2023-02-23T16:46:19;-6.50;62.09
43772;HTU21D;59066;54.782;32.024;2023-02-23T16:48:49;-6.57;61.89
43772;HTU21D;59066;54.782;32.024;2023-02-23T16:51:19;-6.57;62.46
43772;HTU21D;59066;54.782;32.024;2023-02-23T16:53:48;-6.62;62.03
43772;HTU21D;59066;54.782;32.024;2023-02-23T16:56:19;-6.66;62.12
43772;HTU21D;59066;54.782;32.024;2023-02-23T16:58:51;-6.67;62.63
43772;HTU21D;59066;54.782;32.024;2023-02-23T17:01:19;-6.75;62.72
43772;HTU21D;59066;54.782;32.024;2023-02-23T17:03:47;-6.80;62.26
43772;HTU21D;59066;54.782;32.024;2023-02-23T17:06:20;-6.87;62.35
43772;HTU21D;59066;54.782;32.024;2023-02-23T17:08:47;-6.87;62.94
43772;HTU21D;59066;54.782;32.024;2023-02-23T17:11:23;-6.93;62.43
43772;HTU21D;59066;54.782;32.024;2023-02-23T17:13:50;-6.96;62.90
43772;HTU21D;59066;54.782;32.024;2023-02-23T17:16:18;-6.97;62.85
43772;HTU21D;59066;54.782;32.024;2023-02-23T17:18:46;-7.03;63.07
43772;HTU21D;59066;54.782;32.024;2023-02-23T17:21:15;-7.08;62.94
43772;HTU21D;59066;54.782;32.024;2023-02-23T17:23:49;-7.16;62.79
43772;HTU21D;59066;54.782;32.024;2023-02-23T17:26:22;-7.22;63.21
43772;HTU21D;59066;54.782;32.024;2023-02-23T17:28:50;-7.26;62.96
43772;HTU21D;59066;54.782;32.024;2023-02-23T17:31:19;-7.24;63.40
43772;HTU21D;59066;54.782;32.024;2023-02-23T17:33:50;-7.22;63.95
43772;HTU21D;59066;54.782;32.024;2023-02-23T17:36:18;-7.18;64.04